Vizconde de Eza — EAXB — position and weather

sailwx.info

Track history (hours):
 
Tides and Currents Weather Stations Pressure Air Temp Water Temp Dewpoint Dewpoint Depression Visibility Wind Speed Wind Dir Waves Ship Positions

Oceanographic research ship Vizconde de Eza (Spain)

Detailed information on ship capabilities available from University of Delaware's Ocean Information Center.

Last reported at 2014-Sep-16 07:32 UTC. Time now 2014-Oct-02 02:29 UTC.
Position N 53°37' W 011°36'.
Warning: this ship's position is 15 days out of date.

Length 53 m; draft 6.2 m.

Type: Other ship. MMSI: 224582000.

Date/timePositionNaut miles runAvg speedWind from/ knotsBaromVisibWave heightAir tempDewpointWater temp
2014-Sep-16 07:32N 53°37' W 011°36'3 3.1
2014-Sep-16 06:33N 53°38' W 011°31'2 2.1
2014-Sep-16 05:33N 53°40' W 011°30'3 3.3
2014-Sep-16 04:33N 53°40' W 011°36'4 3.6
2014-Sep-16 03:33N 53°39' W 011°42'5 4.9
2014-Sep-16 02:33N 53°39' W 011°50'6 5.6
2014-Sep-16 01:33N 53°38' W 011°59'6 5.7
2014-Sep-16 00:25N 53°38' W 012°10'18 1.3
2014-Sep-15 10:11N 53°48' W 011°44'2 3.7
2014-Sep-15 09:33N 53°47' W 011°40'3 3.0
2014-Sep-15 08:32N 53°49' W 011°37'11 8.4
2014-Sep-15 07:16N 53°52' W 011°19'1 1.5
2014-Sep-15 06:33N 53°53' W 011°18'3 3.3
2014-Sep-15 05:33N 53°53' W 011°13'8 8.3
2014-Sep-15 04:34N 53°47' W 011°04'9 9.0
2014-Sep-15 03:33N 53°40' W 010°54'12 9.7
2014-Sep-15 02:19N 53°31' W 010°40'8 9.9
2014-Sep-15 01:32N 53°25' W 010°32'1010.0
2014-Sep-15 00:33N 53°18' W 010°21'9 9.4
2014-Sep-14 23:33N 53°12' W 010°09'1010.0
2014-Sep-14 22:33N 53°12' W 009°52'1010.1
2014-Sep-14 21:33N 53°12' W 009°36'1010.2
2014-Sep-14 20:33N 53°12' W 009°19'2 0.1
2014-Sep-13 05:33N 53°12' W 009°15'8 8.2
2014-Sep-13 04:33N 53°12' W 009°28'8 8.1
2014-Sep-13 03:33N 53°12' W 009°42'8 8.4
2014-Sep-13 02:33N 53°12' W 009°56'9 8.6
2014-Sep-13 01:32N 53°12' W 010°10'9 9.1
2014-Sep-13 00:33N 53°18' W 010°22'9 9.2
2014-Sep-12 23:33N 53°24' W 010°33'9 8.6
2014-Sep-12 22:33N 53°30' W 010°43'9 8.8
2014-Sep-12 21:32N 53°37' W 010°53'9 8.9
2014-Sep-12 20:33N 53°43' W 011°04'10 9.7
2014-Sep-12 19:33N 53°50' W 011°16'1110.3
2014-Sep-12 18:30N 53°57' W 011°29'1 1.5
2014-Sep-12 17:32N 53°58' W 011°31'3 3.1
2014-Sep-12 16:33N 53°57' W 011°36'6 5.9
2014-Sep-12 15:31N 53°58' W 011°47'3 2.6
2014-Sep-12 14:32N 53°57' W 011°51'9 8.6
2014-Sep-12 13:30N 53°58' W 012°06'22 5.4
2014-Sep-12 09:26N 53°52' W 012°41'1 1.0
2014-Sep-12 08:12N 53°51' W 012°43'1 0.8
2014-Sep-12 06:33N 53°52' W 012°43'3 1.7
2014-Sep-12 04:33N 53°52' W 012°48'0 0.2
2014-Sep-12 03:15N 53°52' W 012°49'3 3.3
2014-Sep-12 02:29N 53°51' W 012°45'4 3.3
2014-Sep-12 01:22N 53°51' W 012°38'2 2.0
2014-Sep-12 00:27N 53°52' W 012°41'5 3.2
2014-Sep-11 23:04N 53°56' W 012°43'62 2.3
2014-Sep-10 20:20N 53°11' W 013°57'  
Track history (hours):
 
Tides and Currents Weather Stations Pressure Air Temp Water Temp Dewpoint Dewpoint Depression Visibility Wind Speed Wind Dir Waves Ship Positions

Oceanographic research ship Vizconde de Eza (Spain)

Detailed information on ship capabilities available from University of Delaware's Ocean Information Center.

Last reported at 2014-Sep-16 07:32 UTC. Time now 2014-Oct-02 02:29 UTC.
Position N 53°37' W 011°36'.
Warning: this ship's position is 15 days out of date.

Length 53 m; draft 6.2 m.

Type: Other ship. MMSI: 224582000.

Date/timePositionNaut miles runAvg speedWind from/ knotsBaromVisibWave heightAir tempDewpointWater temp
2014-Sep-16 07:32N 53°37' W 011°36'3 3.1
2014-Sep-16 06:33N 53°38' W 011°31'2 2.1
2014-Sep-16 05:33N 53°40' W 011°30'3 3.3
2014-Sep-16 04:33N 53°40' W 011°36'4 3.6
2014-Sep-16 03:33N 53°39' W 011°42'5 4.9
2014-Sep-16 02:33N 53°39' W 011°50'6 5.6
2014-Sep-16 01:33N 53°38' W 011°59'6 5.7
2014-Sep-16 00:25N 53°38' W 012°10'18 1.3
2014-Sep-15 10:11N 53°48' W 011°44'2 3.7
2014-Sep-15 09:33N 53°47' W 011°40'3 3.0
2014-Sep-15 08:32N 53°49' W 011°37'11 8.4
2014-Sep-15 07:16N 53°52' W 011°19'1 1.5
2014-Sep-15 06:33N 53°53' W 011°18'3 3.3
2014-Sep-15 05:33N 53°53' W 011°13'8 8.3
2014-Sep-15 04:34N 53°47' W 011°04'9 9.0
2014-Sep-15 03:33N 53°40' W 010°54'12 9.7
2014-Sep-15 02:19N 53°31' W 010°40'8 9.9
2014-Sep-15 01:32N 53°25' W 010°32'1010.0
2014-Sep-15 00:33N 53°18' W 010°21'9 9.4
2014-Sep-14 23:33N 53°12' W 010°09'1010.0
2014-Sep-14 22:33N 53°12' W 009°52'1010.1
2014-Sep-14 21:33N 53°12' W 009°36'1010.2
2014-Sep-14 20:33N 53°12' W 009°19'2 0.1
2014-Sep-13 05:33N 53°12' W 009°15'8 8.2
2014-Sep-13 04:33N 53°12' W 009°28'8 8.1
2014-Sep-13 03:33N 53°12' W 009°42'8 8.4
2014-Sep-13 02:33N 53°12' W 009°56'9 8.6
2014-Sep-13 01:32N 53°12' W 010°10'9 9.1
2014-Sep-13 00:33N 53°18' W 010°22'9 9.2
2014-Sep-12 23:33N 53°24' W 010°33'9 8.6
2014-Sep-12 22:33N 53°30' W 010°43'9 8.8
2014-Sep-12 21:32N 53°37' W 010°53'9 8.9
2014-Sep-12 20:33N 53°43' W 011°04'10 9.7
2014-Sep-12 19:33N 53°50' W 011°16'1110.3
2014-Sep-12 18:30N 53°57' W 011°29'1 1.5
2014-Sep-12 17:32N 53°58' W 011°31'3 3.1
2014-Sep-12 16:33N 53°57' W 011°36'6 5.9
2014-Sep-12 15:31N 53°58' W 011°47'3 2.6
2014-Sep-12 14:32N 53°57' W 011°51'9 8.6
2014-Sep-12 13:30N 53°58' W 012°06'22 5.4
2014-Sep-12 09:26N 53°52' W 012°41'1 1.0
2014-Sep-12 08:12N 53°51' W 012°43'1 0.8
2014-Sep-12 06:33N 53°52' W 012°43'3 1.7
2014-Sep-12 04:33N 53°52' W 012°48'0 0.2
2014-Sep-12 03:15N 53°52' W 012°49'3 3.3
2014-Sep-12 02:29N 53°51' W 012°45'4 3.3
2014-Sep-12 01:22N 53°51' W 012°38'2 2.0
2014-Sep-12 00:27N 53°52' W 012°41'5 3.2
2014-Sep-11 23:04N 53°56' W 012°43'62 2.3
2014-Sep-10 20:20N 53°11' W 013°57'  

Dump ship's entire track history